Terminal Aerodrome Forecast
Issued by NWS

Home | Current Version | Previous Version | Text Only | Print | Product List | Glossary Off
Versions: 1 2 3 4 5 6 7 8 9 10 11 12 13

369
FTUS43 KMPX 152339
TAFAXN
TAF
KAXN 152339Z 1600/1624 33013G22KT 6SM BLSN FEW015 SCT030
     FM160300 34011KT P6SM FEW015 SCT030
     FM161800 28008KT P6SM FEW150=

USA.gov is the U.S. government's official web portal to all federal, state and local government web resources and services.